Time;durP1;ratioP1;P1;durP2;ratioP2;P2;SDS_P1;SDS_P2;PMS_P1;PMS_P2;Temp;Humidity;BMP_temperature;BMP_pressure;BME280_temperature;BME280_humidity;BME280_pressure;Samples;Min_cycle;Max_cycle;Signal;HPM_P1;HPM_P2
2023/04/18 00:00:49;;;;;;;22.27;6.38;;;;;;;17.41;25.32;100209.38;4962885;28;20136;-77
2023/04/18 00:03:14;;;;;;;24.27;7.05;;;;;;;17.35;25.35;100202.91;5011269;28;20137;-76
2023/04/18 00:05:42;;;;;;;20.00;6.78;;;;;;;17.54;25.56;100220.34;4998421;28;20551;-76
2023/04/18 00:08:09;;;;;;;21.90;6.43;;;;;;;17.50;25.42;100214.50;5067293;28;20486;-75
2023/04/18 00:10:36;;;;;;;24.60;6.65;;;;;;;17.49;25.30;100212.84;5025413;28;20040;-74
2023/04/18 00:13:02;;;;;;;22.85;6.50;;;;;;;17.53;25.45;100218.69;5023112;28;20060;-76
2023/04/18 00:15:29;;;;;;;22.17;7.13;;;;;;;17.51;25.42;100218.03;5017913;28;20143;-76
2023/04/18 00:17:56;;;;;;;26.60;6.30;;;;;;;17.50;25.55;100206.44;5059195;28;20121;-76
2023/04/18 00:20:24;;;;;;;29.67;7.15;;;;;;;17.46;25.56;100207.00;5050420;28;20061;-76
2023/04/18 00:22:53;;;;;;;15.95;6.40;;;;;;;17.49;25.59;100210.16;5027222;28;20041;-77
2023/04/18 00:25:22;;;;;;;29.02;7.00;;;;;;;17.63;25.53;100209.28;5017723;28;20060;-75
2023/04/18 00:27:49;;;;;;;23.50;6.95;;;;;;;17.43;25.88;100212.72;5017832;28;20059;-76
2023/04/18 00:30:16;;;;;;;22.58;5.57;;;;;;;17.39;26.00;100208.75;5033732;28;20123;-75
2023/04/18 00:32:42;;;;;;;27.10;6.47;;;;;;;17.36;26.07;100209.94;5017642;28;20442;-75
2023/04/18 00:35:08;;;;;;;23.65;6.05;;;;;;;17.33;26.09;100206.81;5001065;28;20133;-74
2023/04/18 00:37:36;;;;;;;23.88;6.07;;;;;;;17.34;26.01;100214.69;5017900;28;20131;-76
2023/04/18 00:40:04;;;;;;;17.42;6.65;;;;;;;17.30;26.18;100209.88;5033664;28;20041;-75
2023/04/18 00:42:30;;;;;;;20.85;6.15;;;;;;;17.35;25.99;100210.97;5034095;28;20577;-75
2023/04/18 00:44:56;;;;;;;23.60;6.50;;;;;;;17.37;26.15;100208.09;5017151;28;20053;-76
2023/04/18 00:47:24;;;;;;;22.38;6.13;;;;;;;17.43;26.24;100208.19;5019517;28;20053;-76
2023/04/18 00:49:50;;;;;;;23.58;6.00;;;;;;;17.39;26.23;100214.94;5038124;28;20182;-75
2023/04/18 00:52:17;;;;;;;20.13;6.55;;;;;;;17.47;26.11;100214.88;5038247;28;20098;-76
2023/04/18 00:54:46;;;;;;;15.93;5.65;;;;;;;17.44;26.13;100209.88;5054641;28;20098;-75
2023/04/18 00:57:13;;;;;;;13.38;5.60;;;;;;;17.45;26.07;100213.41;5054506;28;20059;-74
2023/04/18 00:59:39;;;;;;;22.27;6.35;;;;;;;17.45;26.20;100213.41;5054659;28;20052;-73
2023/04/18 01:02:07;;;;;;;14.43;5.72;;;;;;;17.51;26.13;100212.66;5055123;28;20044;-74
2023/04/18 01:04:33;;;;;;;23.35;6.55;;;;;;;17.44;26.15;100209.03;5021383;28;20538;-74
2023/04/18 01:07:01;;;;;;;18.73;6.00;;;;;;;17.50;26.11;100209.13;5021826;28;20054;-74
2023/04/18 01:09:29;;;;;;;14.90;5.63;;;;;;;17.50;26.17;100209.13;5033721;28;20143;-76
2023/04/18 01:11:55;;;;;;;13.48;5.75;;;;;;;17.47;26.26;100214.03;5016976;28;20494;-79
2023/04/18 01:14:22;;;;;;;18.27;6.18;;;;;;;17.46;26.06;100210.53;5033367;28;20075;-75
2023/04/18 01:16:48;;;;;;;17.73;5.63;;;;;;;17.40;26.16;100199.66;5000764;28;20110;-74
2023/04/18 01:19:17;;;;;;;20.73;6.68;;;;;;;17.54;26.20;100207.75;5017073;28;20049;-74
2023/04/18 01:21:44;;;;;;;19.70;6.60;;;;;;;17.49;26.36;100203.94;5016913;28;20049;-74
2023/04/18 01:24:16;;;;;;;13.00;6.18;;;;;;;17.64;26.25;100202.03;5001095;28;20568;-75
2023/04/18 01:26:46;;;;;;;19.98;6.45;;;;;;;17.61;26.21;100203.25;5017175;28;20056;-74
2023/04/18 01:29:12;;;;;;;16.83;6.95;;;;;;;17.52;26.35;100196.34;5017105;28;20053;-74
2023/04/18 01:31:40;;;;;;;19.23;7.00;;;;;;;17.53;26.57;100198.00;5017047;28;20121;-73
2023/04/18 01:34:07;;;;;;;19.77;7.03;;;;;;;17.51;26.47;100196.53;5017321;28;20037;-73
2023/04/18 01:36:35;;;;;;;18.80;7.45;;;;;;;17.56;26.72;100203.00;5016948;28;20041;-74
2023/04/18 01:39:02;;;;;;;34.08;8.13;;;;;;;17.47;26.97;100205.97;5000570;28;20052;-77
2023/04/18 01:41:31;;;;;;;22.17;7.13;;;;;;;17.45;27.09;100205.34;5036338;28;20113;-75
2023/04/18 01:43:58;;;;;;;27.90;7.82;;;;;;;17.40;27.27;100186.25;5021610;28;20467;-74
2023/04/18 01:46:26;;;;;;;23.95;7.13;;;;;;;17.39;27.19;100192.66;5021697;28;20033;-78
2023/04/18 01:48:54;;;;;;;15.48;6.32;;;;;;;17.42;26.85;100200.31;5021515;28;20059;-75
2023/04/18 01:51:20;;;;;;;22.95;6.65;;;;;;;17.36;27.08;100193.84;5020746;28;20049;-75
2023/04/18 01:53:47;;;;;;;21.63;6.25;;;;;;;17.37;27.01;100192.00;5037391;28;20049;-74
2023/04/18 01:56:14;;;;;;;19.80;6.70;;;;;;;17.39;26.70;100193.47;5032929;28;20049;-76
2023/04/18 01:58:40;;;;;;;22.02;7.03;;;;;;;17.38;26.81;100199.84;5020395;28;20061;-75
2023/04/18 02:01:06;;;;;;;14.82;6.70;;;;;;;17.42;26.63;100201.13;5037031;28;20529;-74
2023/04/18 02:03:34;;;;;;;20.77;6.65;;;;;;;17.41;26.74;100198.63;5020459;28;20049;-76
2023/04/18 02:06:00;;;;;;;15.20;6.32;;;;;;;17.45;26.90;100203.47;5004113;28;20379;-73
2023/04/18 02:08:27;;;;;;;24.02;6.53;;;;;;;17.40;27.48;100197.00;5003813;28;20076;-73
2023/04/18 02:10:53;;;;;;;26.80;6.70;;;;;;;17.41;27.30;100190.59;5051859;28;20505;-74
2023/04/18 02:13:19;;;;;;;24.35;7.10;;;;;;;17.36;27.54;100188.47;5002976;28;20160;-74
2023/04/18 02:15:45;;;;;;;21.13;7.00;;;;;;;17.39;27.24;100201.50;5019134;28;20064;-75
2023/04/18 02:18:17;;;;;;;20.70;6.32;;;;;;;17.41;27.13;100195.94;5035616;28;20106;-75
2023/04/18 02:20:44;;;;;;;13.95;6.38;;;;;;;17.40;27.13;100199.66;5036939;28;20383;-72
2023/04/18 02:23:10;;;;;;;13.80;6.28;;;;;;;17.41;27.30;100190.59;5036936;28;20533;-74
2023/04/18 02:25:36;;;;;;;15.50;6.97;;;;;;;17.43;27.35;100194.75;5020385;28;20140;-73
2023/04/18 02:28:03;;;;;;;20.60;7.07;;;;;;;17.60;27.50;100190.88;5020554;28;20143;-76
2023/04/18 02:30:30;;;;;;;19.55;6.63;;;;;;;17.48;27.23;100194.22;5020737;28;20063;-76
2023/04/18 02:32:56;;;;;;;25.25;7.07;;;;;;;17.49;27.53;100185.97;5037068;28;20045;-76
2023/04/18 02:35:25;;;;;;;23.55;7.00;;;;;;;17.56;27.26;100180.69;5020485;28;20143;-76
2023/04/18 02:37:56;;;;;;;22.75;7.45;;;;;;;17.54;27.25;100190.78;5036973;28;20049;-76
2023/04/18 02:40:21;;;;;;;21.00;7.25;;;;;;;17.54;27.37;100196.16;5053043;28;20162;-75
2023/04/18 02:42:47;;;;;;;23.35;7.88;;;;;;;17.54;27.45;100188.94;5019342;28;20087;-75
2023/04/18 02:45:14;;;;;;;21.70;6.80;;;;;;;17.54;27.10;100193.47;5003395;28;20095;-76
2023/04/18 02:47:41;;;;;;;20.85;6.97;;;;;;;17.55;27.36;100181.69;5005326;28;20053;-76
2023/04/18 02:50:08;;;;;;;22.98;7.22;;;;;;;17.51;27.18;100178.56;5019684;28;20096;-76
2023/04/18 02:52:35;;;;;;;21.15;7.45;;;;;;;17.46;26.98;100178.31;5036257;28;20045;-77
2023/04/18 02:55:02;;;;;;;23.80;7.32;;;;;;;17.55;27.08;100182.53;5036249;28;20048;-77
2023/04/18 02:57:33;;;;;;;18.08;6.78;;;;;;;17.51;27.03;100183.09;5020786;28;20344;-77
2023/04/18 03:00:15;;;;;;;21.80;7.30;;;;;;;17.59;27.12;100186.50;5020119;28;20052;-76
2023/04/18 03:03:14;;;;;;;21.23;6.32;;;;;;;17.57;27.10;100183.19;5024621;28;20049;-77
2023/04/18 03:05:55;;;;;;;15.25;6.97;;;;;;;17.75;27.09;100188.13;4972763;28;20049;-78
2023/04/18 03:08:23;;;;;;;18.10;6.82;;;;;;;17.72;27.12;100185.81;5016307;28;20148;-77
2023/04/18 03:10:49;;;;;;;22.73;6.63;;;;;;;17.58;27.16;100187.53;5032963;28;20534;-81
2023/04/18 03:13:18;;;;;;;23.98;6.90;;;;;;;17.54;27.33;100174.66;5042303;28;20052;-77
2023/04/18 03:15:44;;;;;;;19.27;7.53;;;;;;;17.60;27.25;100179.28;5040192;28;20064;-76
2023/04/18 03:18:11;;;;;;;25.08;7.20;;;;;;;17.62;27.77;100179.94;5040060;28;20048;-80
2023/04/18 03:20:39;;;;;;;36.75;7.90;;;;;;;17.65;28.06;100184.94;5022889;28;20057;-76
2023/04/18 03:23:07;;;;;;;29.52;7.53;;;;;;;17.64;28.10;100185.94;5050161;28;20072;-74
2023/04/18 03:25:34;;;;;;;24.73;8.50;;;;;;;17.65;27.92;100188.41;5009419;28;20049;-74
2023/04/18 03:28:00;;;;;;;35.45;8.95;;;;;;;17.63;27.97;100190.50;5031872;28;20065;-72
2023/04/18 03:30:28;;;;;;;20.85;7.47;;;;;;;17.67;28.08;100188.22;4998761;28;20574;-75
2023/04/18 03:32:57;;;;;;;23.52;7.82;;;;;;;17.68;28.03;100189.91;4982949;28;20140;-74
2023/04/18 03:35:25;;;;;;;27.40;8.38;;;;;;;17.73;28.12;100190.16;5015465;28;20417;-72
2023/04/18 03:37:51;;;;;;;25.17;8.25;;;;;;;17.72;28.10;100189.34;5014985;28;20056;-71
2023/04/18 03:40:22;;;;;;;25.20;7.90;;;;;;;17.71;28.15;100193.03;5030545;28;20123;-70
2023/04/18 03:42:53;;;;;;;27.35;8.25;;;;;;;17.72;28.33;100192.03;4972406;28;20055;-73
2023/04/18 03:46:10;;;;;;;30.33;8.15;;;;;;;18.03;28.30;100186.34;4972840;28;20084;-71
2023/04/18 03:48:37;;;;;;;34.25;9.60;;;;;;;17.77;28.54;100186.09;4956180;28;20043;-72
2023/04/18 03:51:10;;;;;;;32.20;8.85;;;;;;;17.90;28.49;100194.25;4962587;28;20051;-74
2023/04/18 03:53:37;;;;;;;38.25;12.10;;;;;;;17.79;28.61;100182.16;4977864;28;20088;-78
2023/04/18 03:56:05;;;;;;;41.20;10.88;;;;;;;17.79;28.60;100181.34;4989287;28;20060;-72
2023/04/18 03:59:00;;;;;;;55.92;11.50;;;;;;;17.86;28.63;100199.22;4963587;28;20644;-72
2023/04/18 04:01:26;;;;;;;50.50;10.82;;;;;;;17.95;28.84;100198.06;4919840;29;20039;-71
2023/04/18 04:03:53;;;;;;;33.78;9.23;;;;;;;17.98;28.21;100200.38;4935788;29;20057;-73
2023/04/18 04:06:19;;;;;;;35.85;9.88;;;;;;;17.98;28.43;100208.44;4919964;29;20042;-75
2023/04/18 04:08:45;;;;;;;41.58;10.23;;;;;;;18.03;28.35;100207.84;4951651;28;20049;-72
2023/04/18 04:11:12;;;;;;;36.88;12.45;;;;;;;18.06;28.63;100202.09;5016320;28;20037;-73
2023/04/18 04:13:38;;;;;;;45.63;12.85;;;;;;;18.06;29.11;100194.03;5007320;28;20052;-72
2023/04/18 04:16:05;;;;;;;32.60;12.88;;;;;;;18.09;29.35;100199.03;5071463;28;20059;-72
2023/04/18 04:18:31;;;;;;;38.63;13.10;;;;;;;18.02;29.46;100200.81;5057073;28;20390;-70
2023/04/18 04:20:59;;;;;;;42.50;12.93;;;;;;;18.07;29.28;100203.75;5040070;28;20486;-71
2023/04/18 04:23:45;;;;;;;49.83;12.43;;;;;;;18.09;28.90;100194.47;5060933;28;20051;-70
2023/04/18 04:26:22;;;;;;;40.20;12.32;;;;;;;18.02;28.95;100200.81;5044813;28;20042;-72
2023/04/18 04:29:02;;;;;;;35.25;11.82;;;;;;;18.15;28.99;100209.84;5091782;28;20051;-70
2023/04/18 04:31:29;;;;;;;35.00;12.57;;;;;;;18.03;29.01;100206.00;5057020;28;20386;-69
2023/04/18 04:33:55;;;;;;;43.63;11.63;;;;;;;18.03;28.91;100189.03;5073491;28;20381;-69
2023/04/18 04:36:25;;;;;;;44.35;12.48;;;;;;;18.19;28.64;100204.88;5088752;28;20385;-69
2023/04/18 04:38:52;;;;;;;36.15;11.32;;;;;;;18.30;28.82;100196.31;5056492;28;20032;-73
2023/04/18 04:41:23;;;;;;;36.85;11.18;;;;;;;18.34;28.51;100200.28;5057403;28;20044;-77
2023/04/18 04:43:51;;;;;;;40.25;12.98;;;;;;;18.39;28.40;100197.84;5039156;28;20044;-71
2023/04/18 04:46:20;;;;;;;40.90;11.93;;;;;;;18.49;28.57;100206.44;5085433;28;20048;-70
2023/04/18 04:48:48;;;;;;;33.17;11.02;;;;;;;18.52;28.39;100207.91;5037325;28;20351;-71
2023/04/18 04:51:14;;;;;;;41.80;11.95;;;;;;;18.60;28.38;100219.34;5069635;28;20596;-71
2023/04/18 04:53:40;;;;;;;32.85;11.77;;;;;;;18.62;28.38;100214.59;5019884;28;20051;-72
2023/04/18 04:56:09;;;;;;;24.85;11.13;;;;;;;18.82;28.42;100217.44;5019937;28;20138;-73
2023/04/18 04:58:35;;;;;;;38.92;12.75;;;;;;;18.75;28.27;100211.16;5033703;28;20075;-73
2023/04/18 05:01:11;;;;;;;40.13;12.25;;;;;;;18.72;28.52;100207.03;5021387;28;20052;-73
2023/04/18 05:03:46;;;;;;;34.30;12.55;;;;;;;18.76;28.32;100213.66;5020300;28;20411;-73
2023/04/18 05:06:19;;;;;;;49.20;12.45;;;;;;;18.77;28.20;100207.28;5043858;28;20139;-73
2023/04/18 05:08:48;;;;;;;41.45;12.05;;;;;;;18.97;28.31;100212.78;5039886;28;20048;-74
2023/04/18 05:11:15;;;;;;;54.42;12.25;;;;;;;18.84;28.23;100210.84;5038705;28;20079;-71
2023/04/18 05:13:44;;;;;;;38.17;13.00;;;;;;;18.95;28.46;100212.97;5015025;28;20057;-73
2023/04/18 05:16:11;;;;;;;49.70;12.60;;;;;;;18.93;28.25;100220.41;4992624;28;20093;-71
2023/04/18 05:18:39;;;;;;;47.13;12.90;;;;;;;18.93;28.38;100212.34;4960144;28;20163;-69
2023/04/18 05:21:05;;;;;;;49.53;12.85;;;;;;;19.00;28.21;100217.78;4976954;28;20053;-75
2023/04/18 05:23:33;;;;;;;44.15;13.20;;;;;;;19.15;28.28;100218.47;4976400;28;20064;-72
2023/04/18 05:25:59;;;;;;;47.90;14.25;;;;;;;19.15;28.24;100222.00;4992616;28;20081;-71
2023/04/18 05:28:26;;;;;;;42.83;13.15;;;;;;;19.23;28.25;100219.16;4992234;28;20045;-70
2023/04/18 05:30:56;;;;;;;51.15;12.88;;;;;;;19.28;28.29;100219.41;4958352;28;20052;-70
2023/04/18 05:33:22;;;;;;;47.38;13.15;;;;;;;19.35;28.17;100224.81;4961710;28;20050;-72
2023/04/18 05:35:48;;;;;;;47.50;11.90;;;;;;;19.34;28.08;100220.47;4961088;28;20053;-71
2023/04/18 05:38:13;;;;;;;47.05;13.63;;;;;;;19.37;28.11;100223.59;4977185;28;20061;-75
2023/04/18 05:40:41;;;;;;;47.40;13.48;;;;;;;19.35;27.84;100217.59;4961016;28;20266;-70
2023/04/18 05:43:07;;;;;;;47.05;14.05;;;;;;;19.42;28.45;100221.13;4961605;28;20131;-71
2023/04/18 05:45:32;;;;;;;47.25;11.98;;;;;;;19.50;27.78;100218.25;4978373;28;20506;-71
2023/04/18 05:47:58;;;;;;;67.80;14.75;;;;;;;19.54;28.02;100218.69;4983654;28;20099;-70
2023/04/18 05:50:24;;;;;;;53.55;13.35;;;;;;;19.67;28.22;100219.56;4999403;28;20136;-67
2023/04/18 05:52:50;;;;;;;54.70;12.43;;;;;;;19.77;28.08;100220.00;4999607;28;20182;-70
2023/04/18 05:55:16;;;;;;;49.35;14.27;;;;;;;19.88;27.68;100214.03;5000248;28;20492;-69
2023/04/18 05:57:43;;;;;;;45.05;12.57;;;;;;;20.00;27.28;100214.28;5016069;28;20045;-69
2023/04/18 06:00:11;;;;;;;60.58;13.68;;;;;;;20.25;27.16;100211.84;5002351;28;20507;-69
2023/04/18 06:02:40;;;;;;;47.25;12.73;;;;;;;20.30;26.88;100218.28;5019261;28;20251;-69
2023/04/18 06:05:06;;;;;;;40.50;12.63;;;;;;;20.36;26.52;100217.44;5035554;28;20060;-70
2023/04/18 06:07:32;;;;;;;57.17;12.70;;;;;;;20.49;26.33;100224.72;5018879;28;20045;-67
2023/04/18 06:09:58;;;;;;;50.03;13.77;;;;;;;20.72;26.27;100217.88;5019402;28;20399;-69
2023/04/18 06:12:24;;;;;;;66.32;14.45;;;;;;;20.83;26.35;100216.41;5018032;28;20625;-69
2023/04/18 06:14:51;;;;;;;51.72;13.05;;;;;;;21.17;26.12;100224.25;5018449;28;20048;-69
2023/04/18 06:17:16;;;;;;;53.72;13.95;;;;;;;21.28;25.63;100220.91;4967553;28;20400;-69
2023/04/18 06:19:42;;;;;;;44.22;13.15;;;;;;;21.39;25.81;100222.94;4975896;28;20044;-69
2023/04/18 06:22:08;;;;;;;46.70;12.55;;;;;;;21.56;25.54;100226.81;4998776;28;20038;-69
2023/04/18 06:24:34;;;;;;;52.53;13.48;;;;;;;21.63;25.15;100228.44;4998641;28;20060;-69
2023/04/18 06:27:00;;;;;;;39.88;13.25;;;;;;;21.57;25.12;100232.00;4998899;28;20471;-68
2023/04/18 06:29:29;;;;;;;59.92;13.63;;;;;;;21.43;25.73;100235.00;5018249;28;20052;-69
2023/04/18 06:31:56;;;;;;;45.83;13.98;;;;;;;21.06;25.96;100233.84;5018989;28;20052;-70
2023/04/18 06:34:22;;;;;;;47.85;14.20;;;;;;;21.21;25.79;100229.03;5018649;28;20033;-69
2023/04/18 06:36:49;;;;;;;43.17;13.18;;;;;;;21.27;25.80;100230.88;5019346;28;20491;-69
2023/04/18 06:39:15;;;;;;;35.95;12.65;;;;;;;21.63;25.02;100223.03;5036162;28;20049;-69
2023/04/18 06:41:40;;;;;;;56.00;14.02;;;;;;;22.05;24.73;100229.72;5035866;28;20053;-70
2023/04/18 06:44:06;;;;;;;39.47;12.18;;;;;;;22.50;24.12;100228.56;5023190;28;20060;-71
2023/04/18 06:46:32;;;;;;;36.53;11.15;;;;;;;22.76;22.25;100232.94;5002858;28;20142;-70
2023/04/18 06:48:59;;;;;;;44.55;12.15;;;;;;;22.85;22.89;100229.75;5019467;28;20045;-69
2023/04/18 06:51:26;;;;;;;31.35;11.98;;;;;;;23.03;22.65;100226.25;5036242;28;20048;-69
2023/04/18 06:53:52;;;;;;;45.83;12.68;;;;;;;23.43;22.32;100235.63;5035391;28;20056;-69
2023/04/18 06:56:19;;;;;;;38.25;11.48;;;;;;;23.74;22.02;100237.31;5003177;28;20047;-69
2023/04/18 06:58:45;;;;;;;36.97;10.88;;;;;;;23.77;21.18;100234.16;5017396;28;20052;-69
2023/04/18 07:01:11;;;;;;;29.23;8.90;;;;;;;23.35;20.47;100235.94;5018760;28;20407;-70
2023/04/18 07:03:37;;;;;;;32.72;8.48;;;;;;;23.20;20.59;100219.19;5019812;28;20048;-69
2023/04/18 07:06:04;;;;;;;26.98;9.23;;;;;;;23.23;20.35;100233.09;5035888;28;20519;-68
2023/04/18 07:08:30;;;;;;;18.23;8.18;;;;;;;23.05;20.82;100237.66;5035590;28;20106;-69
2023/04/18 07:10:56;;;;;;;30.08;8.50;;;;;;;22.28;21.12;100226.47;5019142;28;20402;-69
2023/04/18 07:13:21;;;;;;;15.40;8.02;;;;;;;22.54;21.33;100224.38;5018434;28;20041;-68
2023/04/18 07:15:47;;;;;;;20.10;8.10;;;;;;;22.24;21.39;100214.38;5034104;28;20143;-69
2023/04/18 07:18:13;;;;;;;19.98;8.38;;;;;;;22.62;21.45;100226.81;5059155;28;20044;-69
2023/04/18 07:20:39;;;;;;;27.80;8.55;;;;;;;22.98;20.72;100231.50;5058298;28;20085;-69
2023/04/18 07:23:05;;;;;;;27.52;9.95;;;;;;;23.14;20.77;100225.50;5075311;28;20059;-68
2023/04/18 07:25:31;;;;;;;37.00;9.40;;;;;;;23.29;20.42;100226.00;5042147;28;20390;-68
2023/04/18 07:27:57;;;;;;;20.80;9.52;;;;;;;23.07;20.56;100228.28;5058451;28;20051;-68
2023/04/18 07:30:23;;;;;;;33.75;8.43;;;;;;;23.09;20.28;100217.22;5075308;28;20044;-68
2023/04/18 07:32:49;;;;;;;26.58;9.20;;;;;;;23.31;20.24;100231.19;5058973;28;20470;-67
2023/04/18 07:35:14;;;;;;;22.13;9.32;;;;;;;23.56;20.13;100229.19;5041847;28;20039;-68
2023/04/18 07:37:40;;;;;;;26.23;9.50;;;;;;;24.66;19.47;100233.03;5041762;28;20135;-68
2023/04/18 07:40:07;;;;;;;16.08;8.70;;;;;;;26.96;16.76;100241.56;5074272;28;20035;-68
2023/04/18 07:42:33;;;;;;;20.25;8.23;;;;;;;30.18;14.41;100235.19;5058196;28;20044;-68
2023/04/18 07:44:59;;;;;;;19.40;7.95;;;;;;;33.15;11.92;100232.13;5074803;28;20505;-68
2023/04/18 07:47:26;;;;;;;17.90;8.02;;;;;;;35.71;10.20;100234.47;5056685;28;20509;-68
2023/04/18 07:49:53;;;;;;;23.05;7.63;;;;;;;37.60;8.73;100234.78;5023940;28;20075;-68
2023/04/18 07:52:19;;;;;;;20.95;7.53;;;;;;;39.22;7.87;100230.06;5040898;28;20094;-69
2023/04/18 07:54:45;;;;;;;22.45;6.68;;;;;;;40.43;6.72;100229.03;5039755;28;20054;-69
2023/04/18 07:57:11;;;;;;;21.25;8.43;;;;;;;41.55;6.39;100224.69;5073679;28;20127;-69
2023/04/18 07:59:37;;;;;;;18.45;6.93;;;;;;;43.02;5.97;100221.94;5023797;28;20071;-69
2023/04/18 08:02:03;;;;;;;17.38;6.55;;;;;;;44.07;5.61;100210.56;5023501;28;20539;-69
2023/04/18 08:04:29;;;;;;;18.80;6.57;;;;;;;44.63;4.94;100216.56;5040199;28;20355;-69
2023/04/18 08:06:55;;;;;;;19.60;6.45;;;;;;;45.58;4.51;100227.56;5042031;28;20058;-70
2023/04/18 08:09:21;;;;;;;21.17;6.70;;;;;;;45.75;4.19;100223.38;5073779;28;20052;-69
2023/04/18 08:11:47;;;;;;;17.50;7.25;;;;;;;45.13;4.20;100210.75;5039515;28;20036;-69
2023/04/18 08:14:13;;;;;;;15.57;6.72;;;;;;;43.96;4.79;100203.13;5023610;28;20039;-70
2023/04/18 08:16:39;;;;;;;22.40;6.07;;;;;;;44.45;4.47;100207.81;5056093;28;20474;-70
2023/04/18 08:19:05;;;;;;;15.05;6.07;;;;;;;43.48;5.00;100203.53;5037681;28;20048;-72
2023/04/18 08:21:31;;;;;;;14.80;6.30;;;;;;;43.44;5.08;100191.47;5037800;28;20081;-70
2023/04/18 08:23:57;;;;;;;15.57;6.10;;;;;;;43.09;4.80;100194.16;5054074;28;20040;-69
2023/04/18 08:26:23;;;;;;;12.93;5.03;;;;;;;43.57;4.88;100195.78;5070638;28;20040;-69
2023/04/18 08:28:50;;;;;;;20.77;5.93;;;;;;;44.51;4.37;100195.13;5020989;28;20125;-72
2023/04/18 08:31:16;;;;;;;15.27;5.75;;;;;;;46.03;4.04;100192.94;5037930;28;20048;-71
2023/04/18 08:33:41;;;;;;;17.38;6.03;;;;;;;45.78;3.75;100195.41;5037530;28;20040;-71
2023/04/18 08:36:08;;;;;;;15.20;6.15;;;;;;;46.45;3.47;100181.44;5037225;28;20044;-72
2023/04/18 08:38:34;;;;;;;13.68;5.43;;;;;;;47.36;3.26;100196.44;5070313;28;20049;-73
2023/04/18 08:41:00;;;;;;;14.27;6.03;;;;;;;47.13;3.22;100185.38;5037659;28;20039;-72
2023/04/18 08:43:29;;;;;;;14.93;5.70;;;;;;;45.87;3.61;100186.72;5044614;28;20447;-72
2023/04/18 08:45:59;;;;;;;;;;;;;;;44.89;4.11;100185.06;5074573;28;20040;-73
2023/04/18 08:48:27;;;;;;;16.92;6.25;;;;;;;44.15;4.35;100175.94;5040713;28;19980;-72
2023/04/18 08:50:57;;;;;;;15.75;6.10;;;;;;;43.37;4.69;100169.72;5056979;28;20040;-72
2023/04/18 08:53:25;;;;;;;18.17;6.18;;;;;;;43.80;4.19;100172.34;5057250;28;20063;-71
2023/04/18 08:55:55;;;;;;;19.52;6.30;;;;;;;45.22;3.90;100176.81;5056865;28;20051;-70
2023/04/18 08:58:22;;;;;;;13.32;5.60;;;;;;;46.76;3.81;100166.94;5073709;28;20489;-71
2023/04/18 09:00:52;;;;;;;16.58;5.55;;;;;;;47.80;2.74;100171.00;5073737;28;20138;-71
2023/04/18 09:03:41;;;;;;;15.50;5.30;;;;;;;48.46;2.70;100167.69;5074073;28;20044;-72
2023/04/18 09:06:07;;;;;;;11.45;5.32;;;;;;;49.18;2.21;100158.97;5073389;28;20482;-72
2023/04/18 09:08:34;;;;;;;12.57;5.30;;;;;;;50.01;2.03;100162.88;5073393;28;20063;-73
2023/04/18 09:11:23;;;;;;;21.63;5.82;;;;;;;50.84;2.19;100154.34;5056865;28;20043;-72
2023/04/18 09:13:49;;;;;;;16.95;5.07;;;;;;;49.86;2.05;100149.97;5057224;28;20381;-73
2023/04/18 09:16:21;;;;;;;13.30;5.45;;;;;;;47.60;3.03;100151.59;5073529;28;20066;-73
2023/04/18 09:19:18;;;;;;;13.93;5.65;;;;;;;44.44;3.96;100141.72;5074313;28;20047;-73
2023/04/18 09:21:47;;;;;;;12.60;5.93;;;;;;;41.68;5.08;100133.44;5090156;28;20082;-72
2023/04/18 09:24:22;;;;;;;13.32;5.90;;;;;;;39.54;6.32;100131.28;5073935;28;20463;-72
2023/04/18 09:26:49;;;;;;;14.98;6.25;;;;;;;37.78;6.92;100115.25;5056811;28;20044;-71
2023/04/18 09:29:17;;;;;;;12.43;5.82;;;;;;;35.99;7.99;100133.78;5073209;28;20048;-71
2023/04/18 09:31:59;;;;;;;17.80;6.95;;;;;;;34.54;9.11;100131.22;5073021;28;20036;-72
2023/04/18 09:34:26;;;;;;;14.88;6.78;;;;;;;32.98;9.63;100127.13;5056552;28;20393;-71
2023/04/18 09:37:06;;;;;;;15.65;6.55;;;;;;;32.01;10.75;100120.03;5056701;28;20378;-71
2023/04/18 09:39:32;;;;;;;12.52;6.13;;;;;;;30.89;11.29;100124.41;5090086;28;20048;-71
2023/04/18 09:41:59;;;;;;;14.23;6.57;;;;;;;30.07;11.95;100126.66;5056705;28;20036;-72
2023/04/18 09:44:25;;;;;;;12.48;6.78;;;;;;;29.27;12.45;100124.53;5039944;28;20044;-72
2023/04/18 09:46:51;;;;;;;10.88;6.47;;;;;;;28.69;12.87;100122.00;5056333;28;20056;-71
2023/04/18 09:49:17;;;;;;;17.30;6.78;;;;;;;28.23;13.33;100127.38;5056458;28;20043;-72
2023/04/18 09:51:44;;;;;;;14.32;6.88;;;;;;;27.79;13.52;100123.94;5073176;28;20073;-70
2023/04/18 09:54:14;;;;;;;15.13;7.05;;;;;;;27.28;14.02;100116.28;5040026;28;20183;-70
2023/04/18 09:56:43;;;;;;;14.80;6.80;;;;;;;26.92;14.69;100130.53;5039601;28;20047;-70
2023/04/18 09:59:10;;;;;;;15.23;7.05;;;;;;;26.55;14.75;100121.22;5056559;28;20044;-72
2023/04/18 10:01:36;;;;;;;20.67;7.18;;;;;;;26.14;14.99;100128.75;5039695;28;20508;-72
2023/04/18 10:04:05;;;;;;;16.55;7.30;;;;;;;25.88;15.61;100120.34;5056398;28;20070;-73
2023/04/18 10:06:38;;;;;;;14.20;7.90;;;;;;;25.69;16.15;100122.50;5072784;28;20040;-73
2023/04/18 10:09:05;;;;;;;17.15;8.10;;;;;;;25.25;16.15;100133.28;5072884;28;20048;-71
2023/04/18 10:11:31;;;;;;;19.25;7.63;;;;;;;24.97;16.55;100131.31;5039373;28;20087;-71
2023/04/18 10:14:01;;;;;;;16.45;7.40;;;;;;;24.72;17.21;100130.78;5056028;28;20051;-71
2023/04/18 10:16:28;;;;;;;18.90;8.00;;;;;;;24.37;17.17;100138.06;5039577;28;20056;-71
2023/04/18 10:18:54;;;;;;;14.45;8.40;;;;;;;24.14;17.28;100147.00;5058476;28;20044;-70
2023/04/18 10:21:21;;;;;;;15.43;8.48;;;;;;;24.00;17.52;100133.88;5076767;28;20096;-71
2023/04/18 10:23:50;;;;;;;13.18;8.73;;;;;;;23.85;17.73;100134.28;5076492;28;20055;-72
2023/04/18 10:26:16;;;;;;;24.15;10.38;;;;;;;23.70;17.93;100138.47;5073673;28;20048;-73
2023/04/18 10:28:50;;;;;;;21.52;8.27;;;;;;;23.82;18.11;100142.06;5070150;28;20098;-74
2023/04/18 10:31:19;;;;;;;16.05;7.60;;;;;;;23.54;18.36;100153.50;5053973;28;20059;-70
2023/04/18 10:33:50;;;;;;;14.35;6.88;;;;;;;23.63;18.20;100143.16;5037271;28;20095;-71
2023/04/18 10:36:18;;;;;;;;;;;;;;;23.71;18.35;100148.28;5037431;28;20391;-73
2023/04/18 10:38:58;;;;;;;13.20;6.80;;;;;;;23.65;18.40;100149.19;5036837;28;19938;-73
2023/04/18 10:41:29;;;;;;;13.82;7.03;;;;;;;23.58;18.50;100151.16;5090822;28;20048;-71
2023/04/18 10:44:14;;;;;;;;;;;;;;;23.69;18.32;100153.09;5075552;28;20048;-72
2023/04/18 10:46:41;;;;;;;25.15;7.75;;;;;;;23.52;18.42;100144.78;5075748;28;20011;-72
2023/04/18 10:49:18;;;;;;;21.05;8.70;;;;;;;23.61;18.55;100146.09;5060901;28;20048;-72
2023/04/18 10:51:45;;;;;;;29.58;11.98;;;;;;;23.44;18.43;100149.66;5059342;28;20143;-72
2023/04/18 10:54:19;;;;;;;38.95;12.95;;;;;;;23.53;18.78;100145.59;5059264;28;20052;-72
2023/04/18 10:56:54;;;;;;;30.77;11.15;;;;;;;23.50;18.67;100149.59;5059710;28;20411;-72
2023/04/18 10:59:25;;;;;;;23.33;9.32;;;;;;;23.49;18.86;100149.81;5093233;28;20421;-70
2023/04/18 11:02:24;;;;;;;18.05;8.30;;;;;;;23.58;18.38;100140.31;5078310;28;20046;-67
2023/04/18 11:04:52;;;;;;;13.10;7.07;;;;;;;23.47;18.55;100143.78;5075418;28;20508;-70
2023/04/18 11:07:47;;;;;;;18.13;7.95;;;;;;;23.53;18.54;100127.44;5059201;28;20506;-69
2023/04/18 11:10:25;;;;;;;20.00;7.43;;;;;;;23.81;18.38;100137.69;5043056;28;20096;-69
2023/04/18 11:12:54;;;;;;;17.02;6.97;;;;;;;23.76;18.29;100135.66;5062864;28;20073;-70
2023/04/18 11:15:22;;;;;;;15.43;6.88;;;;;;;23.85;18.26;100142.41;5042045;28;20094;-70
2023/04/18 11:18:00;;;;;;;14.25;6.82;;;;;;;24.12;17.92;100140.16;5076040;28;20478;-70
2023/04/18 11:20:27;;;;;;;16.25;6.97;;;;;;;24.07;17.94;100137.31;5041903;28;20044;-71
2023/04/18 11:22:55;;;;;;;16.30;7.30;;;;;;;24.21;18.07;100131.44;5058741;28;20048;-70